createdAt,value
2017-07-14T00:00:46.704Z,14.99
2017-07-14T00:01:47.396Z,14.89
2017-07-14T00:02:48.335Z,14.92
2017-07-14T00:03:49.022Z,14.89
2017-07-14T00:04:49.708Z,14.91
2017-07-14T00:05:50.393Z,14.85
2017-07-14T00:06:51.081Z,14.79
2017-07-14T00:07:52.018Z,14.79
2017-07-14T00:08:52.702Z,14.78
2017-07-14T00:09:53.388Z,14.70
2017-07-14T00:10:54.075Z,14.70
2017-07-14T00:11:54.763Z,14.72
2017-07-14T00:12:55.699Z,14.66
2017-07-14T00:13:56.386Z,14.65
2017-07-14T00:14:57.068Z,14.58
2017-07-14T00:15:57.753Z,14.55
2017-07-14T00:16:58.436Z,14.60
2017-07-14T00:17:59.379Z,14.59
2017-07-14T00:19:00.066Z,14.47
2017-07-14T00:20:00.752Z,14.47
2017-07-14T00:21:01.438Z,14.53
2017-07-14T00:22:02.121Z,14.50
2017-07-14T00:23:03.053Z,14.37
2017-07-14T00:24:03.738Z,14.44
2017-07-14T00:25:04.428Z,14.44
2017-07-14T00:26:05.114Z,14.37
2017-07-14T00:27:05.801Z,14.35
2017-07-14T00:28:06.737Z,14.41
2017-07-14T00:29:07.427Z,14.50
2017-07-14T00:30:08.112Z,14.47
2017-07-14T00:31:08.816Z,14.47
2017-07-14T00:32:09.486Z,14.41
2017-07-14T00:33:10.423Z,14.45
2017-07-14T00:34:11.105Z,14.48
2017-07-14T00:35:11.789Z,14.40
2017-07-14T00:36:12.471Z,14.40
2017-07-14T00:37:13.158Z,14.33
2017-07-14T00:38:13.841Z,14.36
2017-07-14T00:39:14.523Z,14.36
2017-07-14T00:40:15.211Z,14.33
2017-07-14T00:41:15.898Z,14.36
2017-07-14T00:42:16.582Z,14.37
2017-07-14T00:43:17.519Z,14.41
2017-07-14T00:44:18.207Z,14.37
2017-07-14T00:45:18.896Z,14.45
2017-07-14T00:46:19.584Z,14.41
2017-07-14T00:47:20.269Z,14.40
2017-07-14T00:48:21.212Z,14.40
2017-07-14T00:49:21.897Z,14.40
2017-07-14T00:50:22.606Z,14.33
2017-07-14T00:51:23.277Z,14.43
2017-07-14T00:52:23.961Z,14.45
2017-07-14T00:53:24.900Z,14.45
2017-07-14T00:54:25.586Z,14.44
2017-07-14T00:55:26.272Z,14.37
2017-07-14T00:56:26.959Z,14.29
2017-07-14T00:57:27.647Z,14.32
2017-07-14T00:58:28.589Z,14.30
2017-07-14T00:59:29.276Z,14.26
2017-07-14T01:00:29.966Z,14.28
2017-07-14T01:01:30.655Z,14.17
2017-07-14T01:02:31.344Z,14.23
2017-07-14T01:03:32.029Z,14.12
2017-07-14T01:04:32.720Z,14.11
2017-07-14T01:05:33.421Z,14.07
2017-07-14T01:06:34.109Z,14.22
2017-07-14T01:07:34.797Z,14.23
2017-07-14T01:08:35.480Z,14.26
2017-07-14T01:09:36.170Z,14.26
2017-07-14T01:10:36.860Z,14.32
2017-07-14T01:11:37.547Z,14.17
2017-07-14T01:12:38.234Z,14.20
2017-07-14T01:13:39.177Z,14.20
2017-07-14T01:14:39.857Z,14.25
2017-07-14T01:15:40.542Z,14.25
2017-07-14T01:16:41.238Z,14.22
2017-07-14T01:17:41.925Z,14.18
2017-07-14T01:18:42.866Z,14.18
2017-07-14T01:19:43.550Z,14.17
2017-07-14T01:20:44.235Z,14.22
2017-07-14T01:21:44.946Z,14.25
2017-07-14T01:22:45.633Z,14.12
2017-07-14T01:23:46.566Z,14.14
2017-07-14T01:24:47.248Z,14.15
2017-07-14T01:25:47.933Z,14.00
2017-07-14T01:26:48.619Z,13.97
2017-07-14T01:27:49.312Z,13.96
2017-07-14T01:28:50.262Z,13.97
2017-07-14T01:29:50.944Z,14.04
2017-07-14T01:30:51.629Z,14.05
2017-07-14T01:31:52.937Z,14.03
2017-07-14T01:32:53.622Z,14.04
2017-07-14T01:33:54.558Z,13.97
2017-07-14T01:34:55.246Z,13.97
2017-07-14T01:35:55.930Z,14.10
2017-07-14T01:36:56.613Z,14.08
2017-07-14T01:37:57.302Z,14.03
2017-07-14T01:38:58.243Z,14.03
2017-07-14T01:39:58.934Z,14.12
2017-07-14T01:40:59.618Z,14.00
2017-07-14T01:42:00.302Z,14.03
2017-07-14T01:43:00.990Z,14.11
2017-07-14T01:44:01.674Z,14.07
2017-07-14T01:45:02.357Z,14.11
2017-07-14T01:46:03.043Z,14.14
2017-07-14T01:47:03.729Z,13.99
2017-07-14T01:48:04.414Z,13.96
2017-07-14T01:49:05.363Z,13.87
2017-07-14T01:50:06.059Z,13.99
2017-07-14T01:51:06.740Z,13.97
2017-07-14T01:52:07.431Z,13.95
2017-07-14T01:53:08.112Z,13.95
2017-07-14T01:54:09.046Z,13.83
2017-07-14T01:55:09.726Z,13.77
2017-07-14T01:56:10.415Z,13.83
2017-07-14T01:57:11.107Z,13.90
2017-07-14T01:58:11.793Z,13.92
2017-07-14T01:59:12.731Z,13.89
2017-07-14T02:00:13.421Z,13.89
2017-07-14T02:01:14.113Z,13.96
2017-07-14T02:02:14.802Z,13.99
2017-07-14T02:03:15.487Z,14.00
2017-07-14T02:04:16.422Z,14.05
2017-07-14T02:05:17.104Z,14.05
2017-07-14T02:06:17.787Z,14.04
2017-07-14T02:07:18.475Z,14.07
2017-07-14T02:08:19.161Z,14.04
2017-07-14T02:09:20.087Z,14.04
2017-07-14T02:10:20.771Z,14.04
2017-07-14T02:11:21.458Z,14.03
2017-07-14T02:12:22.143Z,13.99
2017-07-14T02:13:22.828Z,14.04
2017-07-14T02:14:23.769Z,13.99
2017-07-14T02:15:24.449Z,14.04
2017-07-14T02:16:25.137Z,14.04
2017-07-14T02:17:25.821Z,14.08
2017-07-14T02:18:26.504Z,14.10
2017-07-14T02:19:27.439Z,14.12
2017-07-14T02:20:28.126Z,14.04
2017-07-14T02:21:28.818Z,13.97
2017-07-14T02:22:29.501Z,13.99
2017-07-14T02:23:30.186Z,13.95
2017-07-14T02:24:31.126Z,13.95
2017-07-14T02:25:31.816Z,14.03
2017-07-14T02:26:32.501Z,13.87
2017-07-14T02:27:33.186Z,13.85
2017-07-14T02:28:33.873Z,13.93
2017-07-14T02:29:34.809Z,13.87
2017-07-14T02:30:35.497Z,13.93
2017-07-14T02:31:36.185Z,13.93
2017-07-14T02:32:36.864Z,13.99
2017-07-14T02:33:37.547Z,13.92
2017-07-14T02:34:38.483Z,14.00
2017-07-14T02:35:39.169Z,13.85
2017-07-14T02:36:39.857Z,13.85
2017-07-14T02:37:40.544Z,13.87
2017-07-14T02:38:41.249Z,13.96
2017-07-14T02:39:42.167Z,13.96
2017-07-14T02:40:42.848Z,14.07
2017-07-14T02:41:43.531Z,13.99
2017-07-14T02:42:44.220Z,14.04
2017-07-14T02:43:44.903Z,14.04
2017-07-14T02:44:45.844Z,14.05
2017-07-14T02:45:46.527Z,14.04
2017-07-14T02:46:47.215Z,14.08
2017-07-14T02:47:47.897Z,14.00
2017-07-14T02:48:48.580Z,14.00
2017-07-14T02:49:49.518Z,14.07
2017-07-14T02:50:50.203Z,14.11
2017-07-14T02:51:50.889Z,14.07
2017-07-14T02:52:51.581Z,14.11
2017-07-14T02:53:52.266Z,14.14
2017-07-14T02:54:53.203Z,14.14
2017-07-14T02:55:53.887Z,14.08
2017-07-14T02:56:54.568Z,14.11
2017-07-14T02:57:55.258Z,14.07
2017-07-14T02:58:55.945Z,14.22
2017-07-14T02:59:56.879Z,14.18
2017-07-14T03:00:57.571Z,14.23
2017-07-14T03:01:58.255Z,14.17
2017-07-14T03:02:58.939Z,14.22
2017-07-14T03:03:59.630Z,14.22
2017-07-14T03:05:00.568Z,14.20
2017-07-14T03:06:01.253Z,14.18
2017-07-14T03:07:01.937Z,14.22
2017-07-14T03:08:02.626Z,14.23
2017-07-14T03:09:03.309Z,14.20
2017-07-14T03:10:04.250Z,14.20
2017-07-14T03:11:04.935Z,14.18
2017-07-14T03:12:05.621Z,14.23
2017-07-14T03:13:06.303Z,14.23
2017-07-14T03:14:06.989Z,14.23
2017-07-14T03:15:07.922Z,14.23
2017-07-14T03:16:08.608Z,14.25
2017-07-14T03:17:09.297Z,14.33
2017-07-14T03:18:09.983Z,14.32
2017-07-14T03:19:10.666Z,14.23
2017-07-14T03:20:11.606Z,14.17
2017-07-14T03:21:12.290Z,14.22
2017-07-14T03:22:12.974Z,14.20
2017-07-14T03:23:13.662Z,14.12
2017-07-14T03:24:14.347Z,14.11
2017-07-14T03:25:15.281Z,14.08
2017-07-14T03:26:15.962Z,13.95
2017-07-14T03:27:16.654Z,14.00
2017-07-14T03:28:17.343Z,14.10
2017-07-14T03:29:18.023Z,14.07
2017-07-14T03:30:18.960Z,14.14
2017-07-14T03:31:19.644Z,14.18
2017-07-14T03:32:20.330Z,14.23
2017-07-14T03:33:21.020Z,14.18
2017-07-14T03:34:21.710Z,14.18
2017-07-14T03:35:22.647Z,14.25
2017-07-14T03:36:23.332Z,14.28
2017-07-14T03:37:24.019Z,14.28
2017-07-14T03:38:24.705Z,14.37
2017-07-14T03:39:25.407Z,14.37
2017-07-14T03:40:26.338Z,14.40
2017-07-14T03:41:27.028Z,14.47
2017-07-14T03:42:27.715Z,14.44
2017-07-14T03:43:28.401Z,14.41
2017-07-14T03:44:29.086Z,14.37
2017-07-14T03:45:30.024Z,14.44
2017-07-14T03:46:30.709Z,14.45
2017-07-14T03:47:31.393Z,14.53
2017-07-14T03:48:32.079Z,14.45
2017-07-14T03:49:32.773Z,14.44
2017-07-14T03:50:33.712Z,14.47
2017-07-14T03:51:34.404Z,14.55
2017-07-14T03:52:35.097Z,14.47
2017-07-14T03:53:35.784Z,14.45
2017-07-14T03:54:36.471Z,14.53
2017-07-14T03:55:37.408Z,14.44
2017-07-14T03:56:38.097Z,14.51
2017-07-14T03:57:38.793Z,14.41
2017-07-14T03:58:39.482Z,14.40
2017-07-14T03:59:40.172Z,14.43
2017-07-14T04:00:41.105Z,14.47
2017-07-14T04:01:41.795Z,14.28
2017-07-14T04:02:42.486Z,14.33
2017-07-14T04:03:43.173Z,14.18
2017-07-14T04:04:43.861Z,14.20
2017-07-14T04:05:44.561Z,14.28
2017-07-14T04:06:45.252Z,14.35
2017-07-14T04:07:45.949Z,14.45
2017-07-14T04:08:46.629Z,14.44
2017-07-14T04:09:47.320Z,14.48
2017-07-14T04:10:48.260Z,14.48
2017-07-14T04:11:48.948Z,14.43
2017-07-14T04:12:49.635Z,14.60
2017-07-14T04:13:50.329Z,14.50
2017-07-14T04:14:51.019Z,14.40
2017-07-14T04:15:51.956Z,14.45
2017-07-14T04:16:52.645Z,14.44
2017-07-14T04:17:53.336Z,14.48
2017-07-14T04:18:54.027Z,14.54
2017-07-14T04:19:54.713Z,14.54
2017-07-14T04:20:55.649Z,14.55
2017-07-14T04:21:56.342Z,14.55
2017-07-14T04:22:57.031Z,14.58
2017-07-14T04:23:57.729Z,14.55
2017-07-14T04:24:58.419Z,14.60
2017-07-14T04:25:59.360Z,14.62
2017-07-14T04:27:00.051Z,14.59
2017-07-14T04:28:00.746Z,14.60
2017-07-14T04:29:01.434Z,14.55
2017-07-14T04:30:02.122Z,14.65
2017-07-14T04:31:03.061Z,14.63
2017-07-14T04:32:03.752Z,14.65
2017-07-14T04:33:04.439Z,14.70
2017-07-14T04:34:05.126Z,14.72
2017-07-14T04:35:05.812Z,14.70
2017-07-14T04:36:06.750Z,14.60
2017-07-14T04:37:07.440Z,14.60
2017-07-14T04:38:08.134Z,14.55
2017-07-14T04:39:08.825Z,14.51
2017-07-14T04:40:09.527Z,14.60
2017-07-14T04:41:10.457Z,14.63
2017-07-14T04:42:11.144Z,14.66
2017-07-14T04:43:11.833Z,14.55
2017-07-14T04:44:12.520Z,14.55
2017-07-14T04:45:13.208Z,14.51
2017-07-14T04:46:14.148Z,14.53
2017-07-14T04:47:14.839Z,14.50
2017-07-14T04:48:15.532Z,14.44
2017-07-14T04:49:16.227Z,14.55
2017-07-14T04:50:16.913Z,14.44
2017-07-14T04:51:17.853Z,14.41
2017-07-14T04:52:18.544Z,14.44
2017-07-14T04:53:19.238Z,14.26
2017-07-14T04:54:19.934Z,14.41
2017-07-14T04:55:20.643Z,14.47
2017-07-14T04:56:21.567Z,14.47
2017-07-14T04:57:22.254Z,14.50
2017-07-14T04:58:22.944Z,14.44
2017-07-14T04:59:23.631Z,14.36
2017-07-14T05:00:24.324Z,14.47
2017-07-14T05:01:25.268Z,14.51
2017-07-14T05:02:25.958Z,14.28
2017-07-14T05:03:26.650Z,14.41
2017-07-14T05:04:27.353Z,14.51
2017-07-14T05:05:28.045Z,14.55
2017-07-14T05:06:28.985Z,14.70
2017-07-14T05:07:29.677Z,14.69
2017-07-14T05:08:30.366Z,14.82
2017-07-14T05:09:31.053Z,14.89
2017-07-14T05:10:31.744Z,15.03
2017-07-14T05:11:32.685Z,14.78
2017-07-14T05:12:33.379Z,14.72
2017-07-14T05:13:34.069Z,14.72
2017-07-14T05:14:34.764Z,14.79
2017-07-14T05:15:35.455Z,14.81
2017-07-14T05:16:36.400Z,14.88
2017-07-14T05:17:37.087Z,14.92
2017-07-14T05:18:37.774Z,15.02
2017-07-14T05:19:38.463Z,14.79
2017-07-14T05:20:39.151Z,14.79
2017-07-14T05:21:40.094Z,14.81
2017-07-14T05:22:40.786Z,14.86
2017-07-14T05:23:41.485Z,14.99
2017-07-14T05:24:42.178Z,14.77
2017-07-14T05:25:42.871Z,14.86
2017-07-14T05:26:43.813Z,14.88
2017-07-14T05:27:44.505Z,14.73
2017-07-14T05:28:45.204Z,14.65
2017-07-14T05:29:45.893Z,14.78
2017-07-14T05:30:46.585Z,14.66
2017-07-14T05:31:47.525Z,14.68
2017-07-14T05:32:48.226Z,14.88
2017-07-14T05:33:48.918Z,14.91
2017-07-14T05:34:49.610Z,15.02
2017-07-14T05:35:50.303Z,15.09
2017-07-14T05:36:50.994Z,15.10
2017-07-14T05:37:51.683Z,15.24
2017-07-14T05:38:52.376Z,15.24
2017-07-14T05:39:53.067Z,15.21
2017-07-14T05:40:53.759Z,15.36
2017-07-14T05:41:54.703Z,15.40
2017-07-14T05:42:55.399Z,15.47
2017-07-14T05:43:56.092Z,15.57
2017-07-14T05:44:56.785Z,15.54
2017-07-14T05:45:57.474Z,15.64
2017-07-14T05:46:58.171Z,15.54
2017-07-14T05:47:58.864Z,15.64
2017-07-14T05:48:59.555Z,15.52
2017-07-14T05:50:00.245Z,15.61
2017-07-14T05:51:00.943Z,15.52
2017-07-14T05:52:01.888Z,15.52
2017-07-14T05:53:02.576Z,15.57
2017-07-14T05:54:03.266Z,15.58
2017-07-14T05:55:03.957Z,15.57
2017-07-14T05:56:04.642Z,15.58
2017-07-14T05:57:05.581Z,15.59
2017-07-14T05:58:06.277Z,15.59
2017-07-14T05:59:06.985Z,15.65
2017-07-14T06:00:07.665Z,15.72
2017-07-14T06:01:08.359Z,15.76
2017-07-14T06:02:09.305Z,15.75
2017-07-14T06:03:09.992Z,15.73
2017-07-14T06:04:10.689Z,15.84
2017-07-14T06:05:11.380Z,15.91
2017-07-14T06:06:12.073Z,15.88
2017-07-14T06:07:13.012Z,15.97
2017-07-14T06:08:13.702Z,15.92
2017-07-14T06:09:14.398Z,15.94
2017-07-14T06:10:15.084Z,16.08
2017-07-14T06:11:15.775Z,16.09
2017-07-14T06:12:16.477Z,16.26
2017-07-14T06:13:17.170Z,16.15
2017-07-14T06:14:17.861Z,16.04
2017-07-14T06:15:18.553Z,16.08
2017-07-14T06:16:19.244Z,16.08
2017-07-14T06:17:20.188Z,16.05
2017-07-14T06:18:20.887Z,16.13
2017-07-14T06:19:21.574Z,16.17
2017-07-14T06:20:22.262Z,16.00
2017-07-14T06:21:22.953Z,16.04
2017-07-14T06:22:23.896Z,15.98
2017-07-14T06:23:24.586Z,15.91
2017-07-14T06:24:25.281Z,15.94
2017-07-14T06:25:25.987Z,16.01
2017-07-14T06:26:26.687Z,16.01
2017-07-14T06:27:27.632Z,16.16
2017-07-14T06:28:28.328Z,16.12
2017-07-14T06:29:29.046Z,16.15
2017-07-14T06:30:29.733Z,16.21
2017-07-14T06:31:30.423Z,16.38
2017-07-14T06:32:31.364Z,16.28
2017-07-14T06:33:32.065Z,16.21
2017-07-14T06:34:32.703Z,16.24
2017-07-14T06:35:33.452Z,16.28
2017-07-14T06:36:34.145Z,16.26
2017-07-14T06:37:35.086Z,16.26
2017-07-14T06:38:35.794Z,16.13
2017-07-14T06:39:36.493Z,16.31
2017-07-14T06:40:37.191Z,16.26
2017-07-14T06:41:37.899Z,16.24
2017-07-14T06:42:38.836Z,16.26
2017-07-14T06:43:39.537Z,16.17
2017-07-14T06:44:40.228Z,16.16
2017-07-14T06:45:40.922Z,16.32
2017-07-14T06:46:41.617Z,16.26
2017-07-14T06:47:42.573Z,16.29
2017-07-14T06:48:43.223Z,16.24
2017-07-14T06:49:43.968Z,16.38
2017-07-14T06:50:44.661Z,16.33
2017-07-14T06:51:45.350Z,16.36
2017-07-14T06:52:46.290Z,16.39
2017-07-14T06:53:46.994Z,16.46
2017-07-14T06:54:47.687Z,16.35
2017-07-14T06:55:48.381Z,16.41
2017-07-14T06:56:49.073Z,16.47
2017-07-14T06:57:50.013Z,16.49
2017-07-14T06:58:50.706Z,16.49
2017-07-14T06:59:51.395Z,16.47
2017-07-14T07:00:52.087Z,16.57
2017-07-14T07:01:52.782Z,16.53
2017-07-14T07:02:53.723Z,16.50
2017-07-14T07:03:54.414Z,16.61
2017-07-14T07:04:55.110Z,16.61
2017-07-14T07:05:55.802Z,16.53
2017-07-14T07:06:56.494Z,16.61
2017-07-14T07:07:57.182Z,16.65
2017-07-14T07:08:57.874Z,16.56
2017-07-14T07:09:58.564Z,16.61
2017-07-14T07:10:59.256Z,16.72
2017-07-14T07:11:59.948Z,16.75
2017-07-14T07:13:00.890Z,16.76
2017-07-14T07:14:01.581Z,16.76
2017-07-14T07:15:02.275Z,16.79
2017-07-14T07:16:02.965Z,16.91
2017-07-14T07:17:03.662Z,16.90
2017-07-14T07:18:04.605Z,16.97
2017-07-14T07:19:05.290Z,16.97
2017-07-14T07:20:05.983Z,16.97
2017-07-14T07:21:06.676Z,17.09
2017-07-14T07:22:07.367Z,17.06
2017-07-14T07:23:08.309Z,17.09
2017-07-14T07:24:09.004Z,17.12
2017-07-14T07:25:09.659Z,17.16
2017-07-14T07:26:10.384Z,17.22
2017-07-14T07:27:11.076Z,17.30
2017-07-14T07:28:12.020Z,17.34
2017-07-14T07:29:12.722Z,17.33
2017-07-14T07:30:13.413Z,17.42
2017-07-14T07:31:14.103Z,17.45
2017-07-14T07:32:14.796Z,17.68
2017-07-14T07:33:15.737Z,17.82
2017-07-14T07:34:16.430Z,17.90
2017-07-14T07:35:17.120Z,18.11
2017-07-14T07:36:17.812Z,18.18
2017-07-14T07:37:18.503Z,18.23
2017-07-14T07:38:20.135Z,18.28
2017-07-14T07:39:20.835Z,18.38
2017-07-14T07:40:21.525Z,18.37
2017-07-14T07:41:22.217Z,18.49
2017-07-14T07:42:22.914Z,18.70
2017-07-14T07:43:23.855Z,18.78
2017-07-14T07:44:24.558Z,18.78
2017-07-14T07:45:25.252Z,18.71
2017-07-14T07:46:25.945Z,18.86
2017-07-14T07:47:26.638Z,18.71
2017-07-14T07:48:27.585Z,18.70
2017-07-14T07:49:28.281Z,18.81
2017-07-14T07:50:28.987Z,18.73
2017-07-14T07:51:29.682Z,18.81
2017-07-14T07:52:30.380Z,18.59
2017-07-14T07:53:31.319Z,18.58
2017-07-14T07:54:32.013Z,18.70
2017-07-14T07:55:32.708Z,18.66
2017-07-14T07:56:33.407Z,18.70
2017-07-14T07:57:34.095Z,18.68
2017-07-14T07:58:35.042Z,18.59
2017-07-14T07:59:35.741Z,18.66
2017-07-14T08:00:36.427Z,18.74
2017-07-14T08:01:37.122Z,18.70
2017-07-14T08:02:37.814Z,18.59
2017-07-14T08:03:38.756Z,18.59
2017-07-14T08:04:39.468Z,18.68
2017-07-14T08:05:40.166Z,18.70
2017-07-14T08:06:40.871Z,18.78
2017-07-14T08:07:41.565Z,18.81
2017-07-14T08:08:42.506Z,18.63
2017-07-14T08:09:43.215Z,18.68
2017-07-14T08:10:43.915Z,18.75
2017-07-14T08:11:44.610Z,18.65
2017-07-14T08:12:45.301Z,18.68
2017-07-14T08:13:45.996Z,18.62
2017-07-14T08:14:46.704Z,18.66
2017-07-14T08:15:47.398Z,18.68
2017-07-14T08:16:48.092Z,18.77
2017-07-14T08:17:48.785Z,18.73
2017-07-14T08:18:49.737Z,18.63
2017-07-14T08:19:50.439Z,18.65
2017-07-14T08:20:51.129Z,18.77
2017-07-14T08:21:51.819Z,18.73
2017-07-14T08:22:52.513Z,18.70
2017-07-14T08:23:53.459Z,18.66
2017-07-14T08:24:54.156Z,18.77
2017-07-14T08:25:54.849Z,18.71
2017-07-14T08:26:55.541Z,18.70
2017-07-14T08:27:56.235Z,18.80
2017-07-14T08:28:57.180Z,18.66
2017-07-14T08:29:57.876Z,18.68
2017-07-14T08:30:58.574Z,18.74
2017-07-14T08:31:59.271Z,18.73
2017-07-14T08:32:59.983Z,18.81
2017-07-14T08:34:00.903Z,18.90
2017-07-14T08:35:01.595Z,18.98
2017-07-14T08:36:02.293Z,18.96
2017-07-14T08:37:02.995Z,19.09
2017-07-14T08:38:03.689Z,19.15
2017-07-14T08:39:04.390Z,19.22
2017-07-14T08:40:05.077Z,19.31
2017-07-14T08:41:05.775Z,19.37
2017-07-14T08:42:06.468Z,19.47
2017-07-14T08:43:07.161Z,19.44
2017-07-14T08:44:08.102Z,19.59
2017-07-14T08:45:08.795Z,19.71
2017-07-14T08:46:09.492Z,19.91
2017-07-14T08:47:10.188Z,19.94
2017-07-14T08:48:10.882Z,19.86
2017-07-14T08:49:11.826Z,19.95
2017-07-14T08:50:12.523Z,19.91
2017-07-14T08:51:13.213Z,19.99
2017-07-14T08:52:13.906Z,20.03
2017-07-14T08:53:14.597Z,20.16
2017-07-14T08:54:15.539Z,20.21
2017-07-14T08:55:16.230Z,20.26
2017-07-14T08:56:16.921Z,20.26
2017-07-14T08:57:17.614Z,20.28
2017-07-14T08:58:18.308Z,20.36
2017-07-14T08:59:19.256Z,20.51
2017-07-14T09:00:19.956Z,20.70
2017-07-14T09:01:20.656Z,20.74
2017-07-14T09:02:21.345Z,20.88
2017-07-14T09:03:22.045Z,20.88
2017-07-14T09:04:22.995Z,21.02
2017-07-14T09:05:23.688Z,20.99
2017-07-14T09:06:24.381Z,20.99
2017-07-14T09:07:25.077Z,21.12
2017-07-14T09:08:25.783Z,21.11
2017-07-14T09:09:26.729Z,21.15
2017-07-14T09:10:27.425Z,21.18
2017-07-14T09:11:28.118Z,21.18
2017-07-14T09:12:28.810Z,21.30
2017-07-14T09:13:29.507Z,21.22
2017-07-14T09:14:30.454Z,21.25
2017-07-14T09:15:31.145Z,21.18
2017-07-14T09:16:31.842Z,21.14
2017-07-14T09:17:32.543Z,21.15
2017-07-14T09:18:33.252Z,21.24
2017-07-14T09:19:34.198Z,21.32
2017-07-14T09:20:34.883Z,21.42
2017-07-14T09:21:35.590Z,21.40
2017-07-14T09:22:36.292Z,21.57
2017-07-14T09:23:36.982Z,21.75
2017-07-14T09:24:37.928Z,22.02
2017-07-14T09:25:38.627Z,22.20
2017-07-14T09:26:39.312Z,22.25
2017-07-14T09:27:40.003Z,22.43
2017-07-14T09:28:40.698Z,22.51
2017-07-14T09:29:41.650Z,22.38
2017-07-14T09:30:42.346Z,22.41
2017-07-14T09:31:43.037Z,22.45
2017-07-14T09:32:43.732Z,22.59
2017-07-14T09:33:44.429Z,22.63
2017-07-14T09:34:45.379Z,22.53
2017-07-14T09:35:46.069Z,22.55
2017-07-14T09:36:46.765Z,22.53
2017-07-14T09:37:47.459Z,22.43
2017-07-14T09:38:48.151Z,22.57
2017-07-14T09:39:49.095Z,22.57
2017-07-14T09:40:49.801Z,22.69
2017-07-14T09:41:50.503Z,22.70
2017-07-14T09:42:51.151Z,22.70
2017-07-14T09:43:51.910Z,22.80
2017-07-14T09:44:52.856Z,22.62
2017-07-14T09:45:53.553Z,22.83
2017-07-14T09:46:54.249Z,22.78
2017-07-14T09:47:54.941Z,22.90
2017-07-14T09:48:55.635Z,22.85
2017-07-14T09:49:56.582Z,22.68
2017-07-14T09:50:57.289Z,22.78
2017-07-14T09:51:57.984Z,22.96
2017-07-14T09:52:58.685Z,23.02
2017-07-14T09:53:59.382Z,22.98
2017-07-14T09:55:00.330Z,22.96
2017-07-14T09:56:01.048Z,22.94
2017-07-14T09:57:01.743Z,22.99
2017-07-14T09:58:02.442Z,23.18
2017-07-14T09:59:03.136Z,23.17
2017-07-14T10:00:04.078Z,23.02
2017-07-14T10:01:04.780Z,22.96
2017-07-14T10:02:05.488Z,22.91
2017-07-14T10:03:06.196Z,22.94
2017-07-14T10:04:06.889Z,22.88
2017-07-14T10:05:07.841Z,22.88
2017-07-14T10:06:08.538Z,22.68
2017-07-14T10:07:09.230Z,22.57
2017-07-14T10:08:09.925Z,22.45
2017-07-14T10:09:10.623Z,22.38
2017-07-14T10:10:11.566Z,22.33
2017-07-14T10:11:12.260Z,22.18
2017-07-14T10:12:12.958Z,22.18
2017-07-14T10:13:13.654Z,22.02
2017-07-14T10:14:14.353Z,22.04
2017-07-14T10:15:15.299Z,21.95
2017-07-14T10:16:16.008Z,21.62
2017-07-14T10:17:16.705Z,21.69
2017-07-14T10:18:17.405Z,21.89
2017-07-14T10:19:18.096Z,21.95
2017-07-14T10:20:19.044Z,21.72
2017-07-14T10:21:19.737Z,21.58
2017-07-14T10:22:20.439Z,21.72
2017-07-14T10:23:21.131Z,21.80
2017-07-14T10:24:21.828Z,21.98
2017-07-14T10:25:22.777Z,22.06
2017-07-14T10:26:23.383Z,22.14
2017-07-14T10:27:24.174Z,22.07
2017-07-14T10:28:24.864Z,21.89
2017-07-14T10:29:25.560Z,21.76
2017-07-14T10:30:26.505Z,21.55
2017-07-14T10:31:27.204Z,21.35
2017-07-14T10:32:27.899Z,21.45
2017-07-14T10:33:28.595Z,21.43
2017-07-14T10:34:29.289Z,21.50
2017-07-14T10:35:30.243Z,21.39
2017-07-14T10:36:30.939Z,21.32
2017-07-14T10:37:31.635Z,21.46
2017-07-14T10:38:32.333Z,21.46
2017-07-14T10:39:33.031Z,21.20
2017-07-14T10:40:33.980Z,21.27
2017-07-14T10:41:34.666Z,21.36
2017-07-14T10:42:35.359Z,21.07
2017-07-14T10:43:36.051Z,21.30
2017-07-14T10:44:36.748Z,21.35
2017-07-14T10:45:37.695Z,21.36
2017-07-14T10:46:38.386Z,21.39
2017-07-14T10:47:39.080Z,21.36
2017-07-14T10:48:39.782Z,21.48
2017-07-14T10:49:40.478Z,21.66
2017-07-14T10:50:41.423Z,21.77
2017-07-14T10:51:42.129Z,21.98
2017-07-14T10:52:42.821Z,21.82
2017-07-14T10:53:43.514Z,21.98
2017-07-14T10:54:44.205Z,22.00
2017-07-14T10:55:44.899Z,22.22
2017-07-14T10:56:45.592Z,22.38
2017-07-14T10:57:46.290Z,22.60
2017-07-14T10:58:46.987Z,22.53
2017-07-14T10:59:47.686Z,21.85
2017-07-14T11:00:48.383Z,21.82
2017-07-14T11:01:49.083Z,22.00
2017-07-14T11:02:49.777Z,22.17
2017-07-14T11:03:50.477Z,22.44
2017-07-14T11:04:51.179Z,22.60
2017-07-14T11:05:52.129Z,22.65
2017-07-14T11:06:52.831Z,22.85
2017-07-14T11:07:53.526Z,22.75
2017-07-14T11:08:54.228Z,22.44
2017-07-14T11:09:54.927Z,22.43
2017-07-14T11:10:55.872Z,22.25
2017-07-14T11:11:56.560Z,22.53
2017-07-14T11:12:57.254Z,22.33
2017-07-14T11:13:57.951Z,22.59
2017-07-14T11:14:58.646Z,22.33
2017-07-14T11:15:59.595Z,22.28
2017-07-14T11:17:00.294Z,21.99
2017-07-14T11:18:00.995Z,21.91
2017-07-14T11:19:01.694Z,21.96
2017-07-14T11:20:02.398Z,21.96
2017-07-14T11:21:03.348Z,22.10
2017-07-14T11:22:04.049Z,22.11
2017-07-14T11:23:04.743Z,21.82
2017-07-14T11:24:05.441Z,21.79
2017-07-14T11:25:06.143Z,21.64
2017-07-14T11:26:07.086Z,21.80
2017-07-14T11:27:07.790Z,21.99
2017-07-14T11:28:08.485Z,21.77
2017-07-14T11:29:09.180Z,21.80
2017-07-14T11:30:09.876Z,21.57
2017-07-14T11:31:10.827Z,21.69
2017-07-14T11:32:11.480Z,21.77
2017-07-14T11:33:12.229Z,21.89
2017-07-14T11:34:12.931Z,22.08
2017-07-14T11:35:13.632Z,21.91
2017-07-14T11:36:14.579Z,22.06
2017-07-14T11:37:15.283Z,21.67
2017-07-14T11:38:15.978Z,21.91
2017-07-14T11:39:16.674Z,21.99
2017-07-14T11:40:17.376Z,22.07
2017-07-14T11:41:18.074Z,21.96
2017-07-14T11:42:18.767Z,22.22
2017-07-14T11:43:19.461Z,22.11
2017-07-14T11:44:20.164Z,21.98
2017-07-14T11:45:20.853Z,22.08
2017-07-14T11:46:21.802Z,21.98
2017-07-14T11:47:22.500Z,21.91
2017-07-14T11:48:23.203Z,21.64
2017-07-14T11:49:23.899Z,21.91
2017-07-14T11:50:24.594Z,22.07
2017-07-14T11:51:25.542Z,22.17
2017-07-14T11:52:26.237Z,22.11
2017-07-14T11:53:26.939Z,22.14
2017-07-14T11:54:27.633Z,22.06
2017-07-14T11:55:28.329Z,22.02
2017-07-14T11:56:29.277Z,21.85
2017-07-14T11:57:29.983Z,21.89
2017-07-14T11:58:30.677Z,22.13
2017-07-14T11:59:31.369Z,22.17
2017-07-14T12:00:32.066Z,22.48
2017-07-14T12:01:33.012Z,22.65
2017-07-14T12:02:33.712Z,22.75
2017-07-14T12:03:34.407Z,22.90
2017-07-14T12:04:35.108Z,23.32
2017-07-14T12:05:35.805Z,22.84
2017-07-14T12:06:36.755Z,22.51
2017-07-14T12:07:37.456Z,22.48
2017-07-14T12:08:38.158Z,22.38
2017-07-14T12:09:38.858Z,22.57
2017-07-14T12:10:39.556Z,22.60
2017-07-14T12:11:40.504Z,22.53
2017-07-14T12:12:41.200Z,22.68
2017-07-14T12:13:41.914Z,22.85
2017-07-14T12:14:42.618Z,22.73
2017-07-14T12:15:43.316Z,22.93
2017-07-14T12:16:44.271Z,22.76
2017-07-14T12:17:44.971Z,23.00
2017-07-14T12:18:45.667Z,23.02
2017-07-14T12:19:46.362Z,22.96
2017-07-14T12:20:47.059Z,23.17
2017-07-14T12:21:48.009Z,23.15
2017-07-14T12:22:48.708Z,22.90
2017-07-14T12:23:49.399Z,22.80
2017-07-14T12:24:50.096Z,22.57
2017-07-14T12:25:50.788Z,22.65
2017-07-14T12:26:51.746Z,22.43
2017-07-14T12:27:52.450Z,22.44
2017-07-14T12:28:53.145Z,22.57
2017-07-14T12:29:53.846Z,22.28
2017-07-14T12:30:54.538Z,22.00
2017-07-14T12:31:55.487Z,21.95
2017-07-14T12:32:56.189Z,22.00
2017-07-14T12:33:56.884Z,21.70
2017-07-14T12:34:57.576Z,22.14
2017-07-14T12:35:58.277Z,22.22
2017-07-14T12:36:59.222Z,22.25
2017-07-14T12:37:59.917Z,22.54
2017-07-14T12:39:00.620Z,22.73
2017-07-14T12:40:01.321Z,22.93
2017-07-14T12:41:02.017Z,22.76
2017-07-14T12:42:02.965Z,22.75
2017-07-14T12:43:03.661Z,22.69
2017-07-14T12:44:04.360Z,22.91
2017-07-14T12:45:05.060Z,23.24
2017-07-14T12:46:05.759Z,23.00
2017-07-14T12:47:06.706Z,22.84
2017-07-14T12:48:07.399Z,23.03
2017-07-14T12:49:08.100Z,23.44
2017-07-14T12:50:08.796Z,23.54
2017-07-14T12:51:09.492Z,23.37
2017-07-14T12:52:10.453Z,23.36
2017-07-14T12:53:11.152Z,23.62
2017-07-14T12:54:11.839Z,23.78
2017-07-14T12:55:12.538Z,23.87
2017-07-14T12:56:13.244Z,23.78
2017-07-14T12:57:14.191Z,23.88
2017-07-14T12:58:14.890Z,23.44
2017-07-14T12:59:15.589Z,23.32
2017-07-14T13:00:16.311Z,22.99
2017-07-14T13:01:16.985Z,23.39
2017-07-14T13:02:17.938Z,23.51